sensor_id;sensor_type;location;lat;lon;timestamp;noise_LAeq;noise_LA_min;noise_LA_max;noise_LA01;noise_LA95
73746;Laerm;74279;52.002;5.468;2023-11-21T00:00:27;40.41;37.99;46.97;;
73746;Laerm;74279;52.002;5.468;2023-11-21T00:01:20;40.47;38.09;46.35;;
73746;Laerm;74279;52.002;5.468;2023-11-21T00:02:11;40.29;37.93;44.39;;
73746;Laerm;74279;52.002;5.468;2023-11-21T00:03:23;40.33;37.81;44.27;;
73746;Laerm;74279;52.002;5.468;2023-11-21T00:04:20;40.61;38.18;45.10;;
73746;Laerm;74279;52.002;5.468;2023-11-21T00:05:14;40.33;37.92;44.55;;
73746;Laerm;74279;52.002;5.468;2023-11-21T00:06:10;40.28;37.87;46.74;;
73746;Laerm;74279;52.002;5.468;2023-11-21T00:07:02;40.46;37.36;48.18;;
73746;Laerm;74279;52.002;5.468;2023-11-21T00:07:54;40.67;38.36;49.18;;
73746;Laerm;74279;52.002;5.468;2023-11-21T00:08:46;40.57;38.47;45.95;;
73746;Laerm;74279;52.002;5.468;2023-11-21T00:09:38;40.45;38.01;45.08;;
73746;Laerm;74279;52.002;5.468;2023-11-21T00:10:41;40.15;37.59;43.54;;
73746;Laerm;74279;52.002;5.468;2023-11-21T00:11:35;40.22;37.39;44.64;;
73746;Laerm;74279;52.002;5.468;2023-11-21T00:12:30;47.02;38.82;54.43;;
73746;Laerm;74279;52.002;5.468;2023-11-21T00:13:22;42.32;37.88;48.45;;
73746;Laerm;74279;52.002;5.468;2023-11-21T00:14:15;40.18;37.89;43.48;;
73746;Laerm;74279;52.002;5.468;2023-11-21T00:15:10;40.11;37.76;45.97;;
73746;Laerm;74279;52.002;5.468;2023-11-21T00:16:05;40.97;38.12;46.48;;
73746;Laerm;74279;52.002;5.468;2023-11-21T00:16:59;40.30;37.62;43.92;;
73746;Laerm;74279;52.002;5.468;2023-11-21T00:17:50;40.35;38.00;44.49;;
73746;Laerm;74279;52.002;5.468;2023-11-21T00:18:44;40.18;37.81;43.86;;
73746;Laerm;74279;52.002;5.468;2023-11-21T00:19:40;40.23;37.86;45.96;;
73746;Laerm;74279;52.002;5.468;2023-11-21T00:20:33;40.14;37.81;44.86;;
73746;Laerm;74279;52.002;5.468;2023-11-21T00:21:25;40.16;37.66;44.64;;
73746;Laerm;74279;52.002;5.468;2023-11-21T00:22:18;40.01;37.80;44.10;;
73746;Laerm;74279;52.002;5.468;2023-11-21T00:23:09;40.11;37.86;44.48;;
73746;Laerm;74279;52.002;5.468;2023-11-21T00:24:04;40.31;37.70;44.43;;
73746;Laerm;74279;52.002;5.468;2023-11-21T00:25:06;40.45;38.02;44.70;;
73746;Laerm;74279;52.002;5.468;2023-11-21T00:25:59;40.48;38.21;43.90;;
73746;Laerm;74279;52.002;5.468;2023-11-21T00:26:52;40.51;38.20;46.38;;
73746;Laerm;74279;52.002;5.468;2023-11-21T00:27:44;40.87;38.53;44.76;;
73746;Laerm;74279;52.002;5.468;2023-11-21T00:28:36;40.91;38.41;45.59;;
73746;Laerm;74279;52.002;5.468;2023-11-21T00:29:29;40.95;38.72;44.53;;
73746;Laerm;74279;52.002;5.468;2023-11-21T00:30:26;40.94;38.62;44.55;;
73746;Laerm;74279;52.002;5.468;2023-11-21T00:31:18;40.89;38.47;44.86;;
73746;Laerm;74279;52.002;5.468;2023-11-21T00:32:12;40.96;38.87;46.27;;
73746;Laerm;74279;52.002;5.468;2023-11-21T00:33:06;41.00;38.39;44.84;;
73746;Laerm;74279;52.002;5.468;2023-11-21T00:34:05;40.85;38.51;44.43;;
73746;Laerm;74279;52.002;5.468;2023-11-21T00:34:59;40.89;38.62;46.45;;
73746;Laerm;74279;52.002;5.468;2023-11-21T00:35:53;40.84;38.55;44.81;;
73746;Laerm;74279;52.002;5.468;2023-11-21T00:36:45;40.97;38.74;45.84;;
73746;Laerm;74279;52.002;5.468;2023-11-21T00:37:36;41.13;38.46;49.35;;
73746;Laerm;74279;52.002;5.468;2023-11-21T00:38:30;40.90;38.32;46.51;;
73746;Laerm;74279;52.002;5.468;2023-11-21T00:39:24;40.82;38.40;45.91;;
73746;Laerm;74279;52.002;5.468;2023-11-21T00:40:17;40.92;38.67;46.23;;
73746;Laerm;74279;52.002;5.468;2023-11-21T00:41:10;40.94;37.67;47.45;;
73746;Laerm;74279;52.002;5.468;2023-11-21T00:42:10;40.60;38.27;44.56;;
73746;Laerm;74279;52.002;5.468;2023-11-21T00:43:04;40.59;38.04;44.63;;
73746;Laerm;74279;52.002;5.468;2023-11-21T00:43:56;40.58;37.84;44.56;;
73746;Laerm;74279;52.002;5.468;2023-11-21T00:44:49;40.63;38.01;44.49;;
73746;Laerm;74279;52.002;5.468;2023-11-21T00:45:42;40.56;38.01;44.01;;
73746;Laerm;74279;52.002;5.468;2023-11-21T00:46:40;40.52;38.27;50.68;;
73746;Laerm;74279;52.002;5.468;2023-11-21T00:47:31;40.92;38.40;44.60;;
73746;Laerm;74279;52.002;5.468;2023-11-21T00:48:26;40.69;37.81;44.04;;
73746;Laerm;74279;52.002;5.468;2023-11-21T00:49:21;40.73;38.11;49.53;;
73746;Laerm;74279;52.002;5.468;2023-11-21T00:50:12;40.65;37.93;47.31;;
73746;Laerm;74279;52.002;5.468;2023-11-21T00:51:04;40.63;38.39;44.43;;
73746;Laerm;74279;52.002;5.468;2023-11-21T00:51:57;40.61;38.29;45.80;;
73746;Laerm;74279;52.002;5.468;2023-11-21T00:52:49;40.45;37.95;45.22;;
73746;Laerm;74279;52.002;5.468;2023-11-21T00:53:48;40.38;37.78;44.75;;
73746;Laerm;74279;52.002;5.468;2023-11-21T00:54:50;40.30;37.60;45.82;;
73746;Laerm;74279;52.002;5.468;2023-11-21T00:55:41;40.43;38.13;45.89;;
73746;Laerm;74279;52.002;5.468;2023-11-21T00:56:34;40.34;37.75;44.29;;
73746;Laerm;74279;52.002;5.468;2023-11-21T00:57:29;40.33;37.95;44.38;;
73746;Laerm;74279;52.002;5.468;2023-11-21T00:58:21;40.47;38.06;46.02;;
73746;Laerm;74279;52.002;5.468;2023-11-21T00:59:16;40.46;37.45;44.36;;
73746;Laerm;74279;52.002;5.468;2023-11-21T01:00:11;40.35;37.87;44.12;;
73746;Laerm;74279;52.002;5.468;2023-11-21T01:01:07;40.42;37.80;44.61;;
73746;Laerm;74279;52.002;5.468;2023-11-21T01:02:00;40.36;37.68;44.09;;
73746;Laerm;74279;52.002;5.468;2023-11-21T01:02:53;40.35;38.04;43.93;;
73746;Laerm;74279;52.002;5.468;2023-11-21T01:03:47;40.51;37.69;46.27;;
73746;Laerm;74279;52.002;5.468;2023-11-21T01:04:45;40.37;38.13;44.07;;
73746;Laerm;74279;52.002;5.468;2023-11-21T01:05:38;40.35;37.95;44.40;;
73746;Laerm;74279;52.002;5.468;2023-11-21T01:06:31;40.56;37.85;45.56;;
73746;Laerm;74279;52.002;5.468;2023-11-21T01:07:23;40.64;38.15;45.13;;
73746;Laerm;74279;52.002;5.468;2023-11-21T01:08:15;41.70;38.90;46.14;;
73746;Laerm;74279;52.002;5.468;2023-11-21T01:09:07;41.23;38.80;44.54;;
73746;Laerm;74279;52.002;5.468;2023-11-21T01:09:59;40.88;38.17;45.93;;
73746;Laerm;74279;52.002;5.468;2023-11-21T01:10:53;41.05;38.63;44.90;;
73746;Laerm;74279;52.002;5.468;2023-11-21T01:11:49;41.31;38.63;45.77;;
73746;Laerm;74279;52.002;5.468;2023-11-21T01:12:43;41.28;38.80;45.68;;
73746;Laerm;74279;52.002;5.468;2023-11-21T01:13:41;41.22;38.86;44.77;;
73746;Laerm;74279;52.002;5.468;2023-11-21T01:14:33;41.19;38.63;45.81;;
73746;Laerm;74279;52.002;5.468;2023-11-21T01:15:29;41.24;39.17;45.31;;
73746;Laerm;74279;52.002;5.468;2023-11-21T01:16:21;41.15;38.92;46.31;;
73746;Laerm;74279;52.002;5.468;2023-11-21T01:17:19;41.20;38.54;45.40;;
73746;Laerm;74279;52.002;5.468;2023-11-21T01:18:13;41.24;38.83;46.59;;
73746;Laerm;74279;52.002;5.468;2023-11-21T01:19:05;41.19;38.73;46.37;;
73746;Laerm;74279;52.002;5.468;2023-11-21T01:19:56;41.19;38.34;47.55;;
73746;Laerm;74279;52.002;5.468;2023-11-21T01:20:49;41.19;38.67;46.88;;
73746;Laerm;74279;52.002;5.468;2023-11-21T01:21:41;41.07;38.75;51.62;;
73746;Laerm;74279;52.002;5.468;2023-11-21T01:22:33;40.69;37.90;44.32;;
73746;Laerm;74279;52.002;5.468;2023-11-21T01:23:28;40.96;38.48;46.50;;
73746;Laerm;74279;52.002;5.468;2023-11-21T01:24:19;40.87;38.31;44.46;;
73746;Laerm;74279;52.002;5.468;2023-11-21T01:25:11;40.94;38.62;45.59;;
73746;Laerm;74279;52.002;5.468;2023-11-21T01:26:05;41.10;38.79;46.39;;
73746;Laerm;74279;52.002;5.468;2023-11-21T01:27:01;40.80;38.35;44.38;;
73746;Laerm;74279;52.002;5.468;2023-11-21T01:28:04;41.15;38.74;44.61;;
73746;Laerm;74279;52.002;5.468;2023-11-21T01:28:58;41.05;38.90;43.92;;
73746;Laerm;74279;52.002;5.468;2023-11-21T01:29:50;40.94;38.31;45.37;;
73746;Laerm;74279;52.002;5.468;2023-11-21T01:30:46;41.50;38.79;45.93;;
73746;Laerm;74279;52.002;5.468;2023-11-21T01:31:37;40.99;38.58;44.96;;
73746;Laerm;74279;52.002;5.468;2023-11-21T01:32:31;41.01;38.97;44.87;;
73746;Laerm;74279;52.002;5.468;2023-11-21T01:33:23;41.19;38.78;45.21;;
73746;Laerm;74279;52.002;5.468;2023-11-21T01:34:18;41.18;38.78;44.57;;
73746;Laerm;74279;52.002;5.468;2023-11-21T01:35:14;41.07;38.63;44.24;;
73746;Laerm;74279;52.002;5.468;2023-11-21T01:36:09;41.13;38.49;48.59;;
73746;Laerm;74279;52.002;5.468;2023-11-21T01:37:03;41.08;38.44;46.56;;
73746;Laerm;74279;52.002;5.468;2023-11-21T01:37:56;41.09;38.94;44.47;;
73746;Laerm;74279;52.002;5.468;2023-11-21T01:38:47;41.01;38.34;43.90;;
73746;Laerm;74279;52.002;5.468;2023-11-21T01:39:40;41.21;38.73;44.15;;
73746;Laerm;74279;52.002;5.468;2023-11-21T01:40:31;41.25;38.51;46.85;;
73746;Laerm;74279;52.002;5.468;2023-11-21T01:41:22;41.15;38.64;44.32;;
73746;Laerm;74279;52.002;5.468;2023-11-21T01:42:15;41.08;38.79;46.31;;
73746;Laerm;74279;52.002;5.468;2023-11-21T01:43:10;41.05;38.46;45.14;;
73746;Laerm;74279;52.002;5.468;2023-11-21T01:44:02;41.63;38.56;45.39;;
73746;Laerm;74279;52.002;5.468;2023-11-21T01:49:27;41.22;38.37;46.62;;
73746;Laerm;74279;52.002;5.468;2023-11-21T01:50:22;41.25;38.78;44.76;;
73746;Laerm;74279;52.002;5.468;2023-11-21T01:51:22;41.15;38.77;46.64;;
73746;Laerm;74279;52.002;5.468;2023-11-21T01:52:18;41.35;38.97;44.44;;
73746;Laerm;74279;52.002;5.468;2023-11-21T01:53:13;41.17;38.52;45.39;;
73746;Laerm;74279;52.002;5.468;2023-11-21T01:54:06;41.22;38.66;44.47;;
73746;Laerm;74279;52.002;5.468;2023-11-21T01:55:02;41.23;38.95;45.13;;
73746;Laerm;74279;52.002;5.468;2023-11-21T01:55:58;41.03;38.35;44.02;;
73746;Laerm;74279;52.002;5.468;2023-11-21T01:56:51;40.97;38.55;45.39;;
73746;Laerm;74279;52.002;5.468;2023-11-21T01:57:43;41.02;38.27;44.66;;
73746;Laerm;74279;52.002;5.468;2023-11-21T01:58:39;41.02;38.35;47.39;;
73746;Laerm;74279;52.002;5.468;2023-11-21T01:59:36;40.88;38.22;44.17;;
73746;Laerm;74279;52.002;5.468;2023-11-21T02:00:29;41.25;38.73;46.74;;
73746;Laerm;74279;52.002;5.468;2023-11-21T02:01:21;41.03;38.69;46.38;;
73746;Laerm;74279;52.002;5.468;2023-11-21T02:02:17;41.29;38.91;45.07;;
73746;Laerm;74279;52.002;5.468;2023-11-21T02:03:09;41.21;38.48;44.81;;
73746;Laerm;74279;52.002;5.468;2023-11-21T02:04:01;41.47;38.64;46.63;;
73746;Laerm;74279;52.002;5.468;2023-11-21T02:04:55;41.25;38.83;46.32;;
73746;Laerm;74279;52.002;5.468;2023-11-21T02:05:48;41.13;38.82;46.00;;
73746;Laerm;74279;52.002;5.468;2023-11-21T02:06:43;41.07;38.43;45.23;;
73746;Laerm;74279;52.002;5.468;2023-11-21T02:07:35;41.35;38.85;45.28;;
73746;Laerm;74279;52.002;5.468;2023-11-21T02:08:31;39.91;36.07;46.32;;
73746;Laerm;74279;52.002;5.468;2023-11-21T02:09:28;39.07;35.54;44.62;;
73746;Laerm;74279;52.002;5.468;2023-11-21T02:10:22;38.87;35.85;44.40;;
73746;Laerm;74279;52.002;5.468;2023-11-21T02:11:14;39.10;35.28;44.91;;
73746;Laerm;74279;52.002;5.468;2023-11-21T02:12:06;40.01;35.87;47.89;;
73746;Laerm;74279;52.002;5.468;2023-11-21T02:13:00;40.65;36.93;46.37;;
73746;Laerm;74279;52.002;5.468;2023-11-21T02:13:54;39.90;36.62;45.16;;
73746;Laerm;74279;52.002;5.468;2023-11-21T02:14:45;39.33;36.63;44.43;;
73746;Laerm;74279;52.002;5.468;2023-11-21T02:15:38;38.98;36.35;47.36;;
73746;Laerm;74279;52.002;5.468;2023-11-21T02:16:29;39.00;35.55;46.82;;
73746;Laerm;74279;52.002;5.468;2023-11-21T02:17:22;39.03;36.03;44.73;;
73746;Laerm;74279;52.002;5.468;2023-11-21T02:18:15;39.18;36.04;44.40;;
73746;Laerm;74279;52.002;5.468;2023-11-21T02:19:18;40.83;36.12;50.24;;
73746;Laerm;74279;52.002;5.468;2023-11-21T02:20:14;38.88;35.75;45.29;;
73746;Laerm;74279;52.002;5.468;2023-11-21T02:21:08;39.00;36.21;44.51;;
73746;Laerm;74279;52.002;5.468;2023-11-21T02:22:02;38.81;36.02;45.06;;
73746;Laerm;74279;52.002;5.468;2023-11-21T02:22:59;39.55;36.49;44.88;;
73746;Laerm;74279;52.002;5.468;2023-11-21T02:23:50;39.05;35.86;44.81;;
73746;Laerm;74279;52.002;5.468;2023-11-21T02:24:42;38.55;35.87;45.62;;
73746;Laerm;74279;52.002;5.468;2023-11-21T02:25:34;39.52;36.12;43.54;;
73746;Laerm;74279;52.002;5.468;2023-11-21T02:26:28;38.48;35.95;42.86;;
73746;Laerm;74279;52.002;5.468;2023-11-21T02:27:25;40.25;36.14;48.04;;
73746;Laerm;74279;52.002;5.468;2023-11-21T02:28:21;39.13;36.29;43.91;;
73746;Laerm;74279;52.002;5.468;2023-11-21T02:29:16;38.74;36.40;43.01;;
73746;Laerm;74279;52.002;5.468;2023-11-21T02:30:14;38.98;35.70;44.34;;
73746;Laerm;74279;52.002;5.468;2023-11-21T02:31:07;38.75;35.62;46.08;;
73746;Laerm;74279;52.002;5.468;2023-11-21T02:31:59;38.38;35.36;43.03;;
73746;Laerm;74279;52.002;5.468;2023-11-21T02:32:50;40.77;35.98;50.97;;
73746;Laerm;74279;52.002;5.468;2023-11-21T02:33:44;42.02;36.53;50.10;;
73746;Laerm;74279;52.002;5.468;2023-11-21T02:34:36;40.54;36.91;47.30;;
73746;Laerm;74279;52.002;5.468;2023-11-21T02:35:30;38.85;35.58;44.55;;
73746;Laerm;74279;52.002;5.468;2023-11-21T02:36:22;38.39;35.52;47.05;;
73746;Laerm;74279;52.002;5.468;2023-11-21T02:37:13;39.03;35.80;43.64;;
73746;Laerm;74279;52.002;5.468;2023-11-21T02:38:11;38.34;35.11;43.56;;
73746;Laerm;74279;52.002;5.468;2023-11-21T02:39:05;38.30;35.29;43.87;;
73746;Laerm;74279;52.002;5.468;2023-11-21T02:39:59;38.68;35.34;43.15;;
73746;Laerm;74279;52.002;5.468;2023-11-21T02:40:54;38.30;35.29;43.16;;
73746;Laerm;74279;52.002;5.468;2023-11-21T02:41:45;38.62;35.37;47.28;;
73746;Laerm;74279;52.002;5.468;2023-11-21T02:42:41;38.22;35.49;42.94;;
73746;Laerm;74279;52.002;5.468;2023-11-21T02:43:33;38.21;35.47;43.93;;
73746;Laerm;74279;52.002;5.468;2023-11-21T02:44:24;38.72;35.10;46.76;;
73746;Laerm;74279;52.002;5.468;2023-11-21T02:45:18;37.80;34.19;42.48;;
73746;Laerm;74279;52.002;5.468;2023-11-21T02:46:12;38.29;34.86;43.46;;
73746;Laerm;74279;52.002;5.468;2023-11-21T02:47:04;39.29;34.51;46.78;;
73746;Laerm;74279;52.002;5.468;2023-11-21T02:47:59;37.54;34.35;43.01;;
73746;Laerm;74279;52.002;5.468;2023-11-21T02:48:50;38.25;34.36;43.51;;
73746;Laerm;74279;52.002;5.468;2023-11-21T02:49:45;37.64;34.02;44.50;;
73746;Laerm;74279;52.002;5.468;2023-11-21T02:50:36;37.62;34.26;44.73;;
73746;Laerm;74279;52.002;5.468;2023-11-21T02:51:29;38.37;34.42;47.24;;
73746;Laerm;74279;52.002;5.468;2023-11-21T02:52:21;37.70;34.54;42.58;;
73746;Laerm;74279;52.002;5.468;2023-11-21T02:53:13;38.04;34.37;46.62;;
73746;Laerm;74279;52.002;5.468;2023-11-21T02:54:17;37.83;34.21;45.03;;
73746;Laerm;74279;52.002;5.468;2023-11-21T02:55:09;37.35;34.39;42.03;;
73746;Laerm;74279;52.002;5.468;2023-11-21T02:56:05;38.18;34.43;42.44;;
73746;Laerm;74279;52.002;5.468;2023-11-21T02:56:56;37.87;34.66;47.14;;
73746;Laerm;74279;52.002;5.468;2023-11-21T02:57:47;38.54;35.37;42.81;;
73746;Laerm;74279;52.002;5.468;2023-11-21T02:58:44;38.60;35.27;42.72;;
73746;Laerm;74279;52.002;5.468;2023-11-21T02:59:37;38.18;35.40;44.70;;
73746;Laerm;74279;52.002;5.468;2023-11-21T03:00:30;38.63;35.32;45.23;;
73746;Laerm;74279;52.002;5.468;2023-11-21T03:01:22;38.58;35.37;43.76;;
73746;Laerm;74279;52.002;5.468;2023-11-21T03:02:18;39.04;35.28;46.41;;
73746;Laerm;74279;52.002;5.468;2023-11-21T03:03:10;39.19;35.42;44.21;;
73746;Laerm;74279;52.002;5.468;2023-11-21T03:04:02;38.23;35.51;44.99;;
73746;Laerm;74279;52.002;5.468;2023-11-21T03:04:54;38.35;35.03;45.58;;
73746;Laerm;74279;52.002;5.468;2023-11-21T03:05:47;38.84;35.76;44.87;;
73746;Laerm;74279;52.002;5.468;2023-11-21T03:06:39;39.55;36.02;44.91;;
73746;Laerm;74279;52.002;5.468;2023-11-21T03:07:34;39.58;35.90;44.55;;
73746;Laerm;74279;52.002;5.468;2023-11-21T03:08:31;39.07;36.65;46.25;;
73746;Laerm;74279;52.002;5.468;2023-11-21T03:09:23;40.41;36.73;46.68;;
73746;Laerm;74279;52.002;5.468;2023-11-21T03:10:16;40.32;36.43;45.33;;
73746;Laerm;74279;52.002;5.468;2023-11-21T03:11:07;39.28;36.14;46.00;;
73746;Laerm;74279;52.002;5.468;2023-11-21T03:12:01;38.75;36.38;43.15;;
73746;Laerm;74279;52.002;5.468;2023-11-21T03:12:56;38.81;36.26;43.88;;
73746;Laerm;74279;52.002;5.468;2023-11-21T03:13:51;38.67;36.05;44.50;;
73746;Laerm;74279;52.002;5.468;2023-11-21T03:14:52;38.66;36.09;43.64;;
73746;Laerm;74279;52.002;5.468;2023-11-21T03:15:45;38.74;36.35;44.35;;
73746;Laerm;74279;52.002;5.468;2023-11-21T03:16:38;39.60;36.47;44.68;;
73746;Laerm;74279;52.002;5.468;2023-11-21T03:17:30;39.13;36.27;43.52;;
73746;Laerm;74279;52.002;5.468;2023-11-21T03:18:21;38.78;36.04;47.67;;
73746;Laerm;74279;52.002;5.468;2023-11-21T03:19:14;39.82;35.99;61.87;;
73746;Laerm;74279;52.002;5.468;2023-11-21T03:20:10;38.91;36.02;46.94;;
73746;Laerm;74279;52.002;5.468;2023-11-21T03:21:07;38.89;35.96;49.54;;
73746;Laerm;74279;52.002;5.468;2023-11-21T03:22:03;38.38;35.62;43.73;;
73746;Laerm;74279;52.002;5.468;2023-11-21T03:22:56;38.55;35.93;45.00;;
73746;Laerm;74279;52.002;5.468;2023-11-21T03:23:48;39.28;36.09;44.60;;
73746;Laerm;74279;52.002;5.468;2023-11-21T03:24:41;38.76;36.23;44.67;;
73746;Laerm;74279;52.002;5.468;2023-11-21T03:25:33;39.44;36.27;45.35;;
73746;Laerm;74279;52.002;5.468;2023-11-21T03:26:24;39.49;36.14;44.67;;
73746;Laerm;74279;52.002;5.468;2023-11-21T03:27:17;38.76;35.63;48.47;;
73746;Laerm;74279;52.002;5.468;2023-11-21T03:28:09;38.36;34.93;44.08;;
73746;Laerm;74279;52.002;5.468;2023-11-21T03:29:04;43.47;35.81;52.94;;
73746;Laerm;74279;52.002;5.468;2023-11-21T03:29:57;40.32;36.98;46.26;;
73746;Laerm;74279;52.002;5.468;2023-11-21T03:30:51;40.40;36.32;44.98;;
73746;Laerm;74279;52.002;5.468;2023-11-21T03:31:46;39.94;36.06;45.93;;
73746;Laerm;74279;52.002;5.468;2023-11-21T03:32:41;38.17;35.69;47.19;;
73746;Laerm;74279;52.002;5.468;2023-11-21T03:33:35;38.14;35.54;42.91;;
73746;Laerm;74279;52.002;5.468;2023-11-21T03:34:28;38.06;35.16;42.76;;
73746;Laerm;74279;52.002;5.468;2023-11-21T03:35:21;44.06;36.09;56.20;;
73746;Laerm;74279;52.002;5.468;2023-11-21T03:36:13;41.46;37.65;48.27;;
73746;Laerm;74279;52.002;5.468;2023-11-21T03:37:08;39.64;36.23;46.58;;
73746;Laerm;74279;52.002;5.468;2023-11-21T03:38:00;38.21;35.28;44.51;;
73746;Laerm;74279;52.002;5.468;2023-11-21T03:38:54;38.34;35.23;45.01;;
73746;Laerm;74279;52.002;5.468;2023-11-21T03:39:46;38.23;35.26;43.05;;
73746;Laerm;74279;52.002;5.468;2023-11-21T03:40:38;38.52;35.30;44.25;;
73746;Laerm;74279;52.002;5.468;2023-11-21T03:41:34;38.72;35.78;49.38;;
73746;Laerm;74279;52.002;5.468;2023-11-21T03:42:26;38.28;35.02;49.99;;
73746;Laerm;74279;52.002;5.468;2023-11-21T03:43:20;37.47;34.42;42.36;;
73746;Laerm;74279;52.002;5.468;2023-11-21T03:44:13;37.51;34.49;43.46;;
73746;Laerm;74279;52.002;5.468;2023-11-21T03:45:07;40.59;35.19;48.66;;
73746;Laerm;74279;52.002;5.468;2023-11-21T03:45:59;39.99;36.37;46.03;;
73746;Laerm;74279;52.002;5.468;2023-11-21T03:46:51;38.04;35.18;44.56;;
73746;Laerm;74279;52.002;5.468;2023-11-21T03:47:46;41.90;35.47;71.08;;
73746;Laerm;74279;52.002;5.468;2023-11-21T03:48:42;41.59;36.91;48.60;;
73746;Laerm;74279;52.002;5.468;2023-11-21T03:49:35;47.48;36.50;76.98;;
73746;Laerm;74279;52.002;5.468;2023-11-21T03:50:27;42.61;37.37;47.11;;
73746;Laerm;74279;52.002;5.468;2023-11-21T03:51:21;39.21;35.89;45.82;;
73746;Laerm;74279;52.002;5.468;2023-11-21T03:52:16;39.21;35.58;46.08;;
73746;Laerm;74279;52.002;5.468;2023-11-21T03:53:10;41.26;38.15;47.63;;
73746;Laerm;74279;52.002;5.468;2023-11-21T03:54:04;40.04;36.40;44.28;;
73746;Laerm;74279;52.002;5.468;2023-11-21T03:54:57;40.06;36.26;45.83;;
73746;Laerm;74279;52.002;5.468;2023-11-21T03:55:49;38.59;35.71;44.84;;
73746;Laerm;74279;52.002;5.468;2023-11-21T03:56:42;38.17;35.40;43.10;;
73746;Laerm;74279;52.002;5.468;2023-11-21T03:57:37;38.17;34.84;45.39;;
73746;Laerm;74279;52.002;5.468;2023-11-21T03:58:34;38.36;35.61;43.77;;
73746;Laerm;74279;52.002;5.468;2023-11-21T03:59:26;38.42;36.08;45.28;;
73746;Laerm;74279;52.002;5.468;2023-11-21T04:00:18;38.81;36.15;44.87;;
73746;Laerm;74279;52.002;5.468;2023-11-21T04:01:11;38.48;35.37;44.83;;
73746;Laerm;74279;52.002;5.468;2023-11-21T04:02:04;38.77;35.97;44.89;;
73746;Laerm;74279;52.002;5.468;2023-11-21T04:02:58;38.99;36.47;42.93;;
73746;Laerm;74279;52.002;5.468;2023-11-21T04:03:51;38.86;36.35;46.59;;
73746;Laerm;74279;52.002;5.468;2023-11-21T04:04:49;39.13;36.61;50.03;;
73746;Laerm;74279;52.002;5.468;2023-11-21T04:05:42;40.78;36.82;46.75;;
73746;Laerm;74279;52.002;5.468;2023-11-21T04:06:33;39.35;36.80;43.74;;
73746;Laerm;74279;52.002;5.468;2023-11-21T04:07:24;40.36;37.09;44.75;;
73746;Laerm;74279;52.002;5.468;2023-11-21T04:08:16;39.85;36.59;46.00;;
73746;Laerm;74279;52.002;5.468;2023-11-21T04:09:11;40.37;36.86;45.93;;
73746;Laerm;74279;52.002;5.468;2023-11-21T04:10:06;39.40;36.84;43.94;;
73746;Laerm;74279;52.002;5.468;2023-11-21T04:11:02;47.67;38.15;57.86;;
73746;Laerm;74279;52.002;5.468;2023-11-21T04:11:55;41.37;37.61;47.00;;
73746;Laerm;74279;52.002;5.468;2023-11-21T04:12:50;39.48;36.90;43.56;;
73746;Laerm;74279;52.002;5.468;2023-11-21T04:13:42;39.01;36.32;42.89;;
73746;Laerm;74279;52.002;5.468;2023-11-21T04:14:40;40.00;36.55;45.64;;
73746;Laerm;74279;52.002;5.468;2023-11-21T04:15:35;40.17;36.79;47.07;;
73746;Laerm;74279;52.002;5.468;2023-11-21T04:16:26;39.10;36.59;45.00;;
73746;Laerm;74279;52.002;5.468;2023-11-21T04:17:19;38.89;36.29;42.84;;
73746;Laerm;74279;52.002;5.468;2023-11-21T04:18:14;38.51;35.52;44.85;;
73746;Laerm;74279;52.002;5.468;2023-11-21T04:19:06;38.22;35.45;44.48;;
73746;Laerm;74279;52.002;5.468;2023-11-21T04:20:00;38.41;35.96;44.86;;
73746;Laerm;74279;52.002;5.468;2023-11-21T04:20:53;39.34;35.92;43.91;;
73746;Laerm;74279;52.002;5.468;2023-11-21T04:21:46;38.94;35.91;44.85;;
73746;Laerm;74279;52.002;5.468;2023-11-21T04:22:38;38.70;35.97;43.62;;
73746;Laerm;74279;52.002;5.468;2023-11-21T04:23:37;38.96;35.88;45.66;;
73746;Laerm;74279;52.002;5.468;2023-11-21T04:24:32;38.71;35.73;44.56;;
73746;Laerm;74279;52.002;5.468;2023-11-21T04:25:23;38.58;35.86;48.47;;
73746;Laerm;74279;52.002;5.468;2023-11-21T04:26:15;39.41;35.85;44.66;;
73746;Laerm;74279;52.002;5.468;2023-11-21T04:27:08;42.12;36.19;49.80;;
73746;Laerm;74279;52.002;5.468;2023-11-21T04:27:59;39.87;35.98;45.13;;
73746;Laerm;74279;52.002;5.468;2023-11-21T04:28:53;39.00;36.00;48.10;;
73746;Laerm;74279;52.002;5.468;2023-11-21T04:29:51;42.75;35.97;50.61;;
73746;Laerm;74279;52.002;5.468;2023-11-21T04:30:43;39.26;36.46;43.09;;
73746;Laerm;74279;52.002;5.468;2023-11-21T04:31:36;39.68;36.37;43.98;;
73746;Laerm;74279;52.002;5.468;2023-11-21T04:32:28;41.12;37.11;45.34;;
73746;Laerm;74279;52.002;5.468;2023-11-21T04:33:20;38.79;36.23;44.57;;
73746;Laerm;74279;52.002;5.468;2023-11-21T04:34:13;39.68;36.03;46.21;;
73746;Laerm;74279;52.002;5.468;2023-11-21T04:35:06;40.69;36.20;45.50;;
73746;Laerm;74279;52.002;5.468;2023-11-21T04:35:59;41.06;35.87;47.54;;
73746;Laerm;74279;52.002;5.468;2023-11-21T04:36:51;39.24;36.61;43.25;;
73746;Laerm;74279;52.002;5.468;2023-11-21T04:37:43;39.23;36.42;56.94;;
73746;Laerm;74279;52.002;5.468;2023-11-21T04:38:35;40.57;36.96;46.49;;
73746;Laerm;74279;52.002;5.468;2023-11-21T04:39:27;40.22;36.25;45.65;;
73746;Laerm;74279;52.002;5.468;2023-11-21T04:40:21;39.59;36.27;46.12;;
73746;Laerm;74279;52.002;5.468;2023-11-21T04:41:13;38.82;35.93;50.70;;
73746;Laerm;74279;52.002;5.468;2023-11-21T04:42:10;38.86;35.54;47.49;;
73746;Laerm;74279;52.002;5.468;2023-11-21T04:43:08;40.46;36.59;50.41;;
73746;Laerm;74279;52.002;5.468;2023-11-21T04:44:03;41.54;36.81;47.94;;
73746;Laerm;74279;52.002;5.468;2023-11-21T04:47:15;41.11;37.53;49.02;;
73746;Laerm;74279;52.002;5.468;2023-11-21T04:48:07;39.83;36.50;49.47;;
73746;Laerm;74279;52.002;5.468;2023-11-21T04:48:59;40.93;36.63;46.99;;
73746;Laerm;74279;52.002;5.468;2023-11-21T04:49:52;39.53;36.21;45.95;;
73746;Laerm;74279;52.002;5.468;2023-11-21T04:50:43;38.81;35.90;45.23;;
73746;Laerm;74279;52.002;5.468;2023-11-21T04:51:37;40.43;36.60;45.33;;
73746;Laerm;74279;52.002;5.468;2023-11-21T04:52:29;40.43;35.36;49.66;;
73746;Laerm;74279;52.002;5.468;2023-11-21T04:53:26;41.03;36.60;47.84;;
73746;Laerm;74279;52.002;5.468;2023-11-21T04:54:25;40.91;37.27;48.80;;
73746;Laerm;74279;52.002;5.468;2023-11-21T04:55:21;44.28;37.40;56.53;;
73746;Laerm;74279;52.002;5.468;2023-11-21T04:56:14;40.75;36.90;48.08;;
73746;Laerm;74279;52.002;5.468;2023-11-21T04:57:07;41.83;37.38;50.16;;
73746;Laerm;74279;52.002;5.468;2023-11-21T04:57:59;40.68;36.82;57.36;;
73746;Laerm;74279;52.002;5.468;2023-11-21T04:58:53;39.85;37.01;53.98;;
73746;Laerm;74279;52.002;5.468;2023-11-21T04:59:45;41.49;36.73;52.50;;
73746;Laerm;74279;52.002;5.468;2023-11-21T05:00:37;41.31;37.94;53.50;;
73746;Laerm;74279;52.002;5.468;2023-11-21T05:01:32;41.44;37.73;47.18;;
73746;Laerm;74279;52.002;5.468;2023-11-21T05:02:23;41.66;38.21;46.67;;
73746;Laerm;74279;52.002;5.468;2023-11-21T05:03:15;43.64;39.48;48.24;;
73746;Laerm;74279;52.002;5.468;2023-11-21T05:04:47;43.92;37.62;56.02;;
73746;Laerm;74279;52.002;5.468;2023-11-21T05:05:38;44.10;38.40;53.68;;
73746;Laerm;74279;52.002;5.468;2023-11-21T05:06:30;44.10;38.70;49.59;;
73746;Laerm;74279;52.002;5.468;2023-11-21T05:07:22;41.00;37.93;45.28;;
73746;Laerm;74279;52.002;5.468;2023-11-21T05:08:17;42.43;38.61;49.15;;